Time;durP1;ratioP1;P1;durP2;ratioP2;P2;SDS_P1;SDS_P2;PMS_P1;PMS_P2;Temp;Humidity;BMP_temperature;BMP_pressure;BME280_temperature;BME280_humidity;BME280_pressure;Samples;Min_cycle;Max_cycle;Signal;HPM_P1;HPM_P2
2023/03/14 00:00:27;;;;;;;1.70;0.90;;;;;;;12.67;79.92;98727.09;5071489;28;20239;-69
2023/03/14 00:02:55;;;;;;;4.93;0.70;;;;;;;12.70;79.31;98728.53;5073682;28;20243;-68
2023/03/14 00:05:25;;;;;;;2.53;0.67;;;;;;;12.71;79.23;98740.81;5073296;28;20285;-69
2023/03/14 00:07:53;;;;;;;1.97;0.67;;;;;;;12.73;78.92;98728.97;5074609;28;20230;-68
2023/03/14 00:10:21;;;;;;;2.30;0.63;;;;;;;12.72;78.95;98729.16;5071773;28;20211;-69
2023/03/14 00:12:49;;;;;;;2.83;0.60;;;;;;;12.74;78.76;98724.47;5073662;28;20242;-68
2023/03/14 00:15:16;;;;;;;3.20;0.73;;;;;;;12.72;78.67;98723.84;5073745;28;20207;-68
2023/03/14 00:17:45;;;;;;;1.03;0.57;;;;;;;12.72;78.37;98724.66;5071969;28;20647;-69
2023/03/14 00:20:13;;;;;;;2.30;0.73;;;;;;;12.70;78.94;98718.72;5071196;28;20228;-70
2023/03/14 00:22:42;;;;;;;3.80;0.63;;;;;;;12.70;78.84;98712.59;5070063;28;20548;-70
2023/03/14 00:25:12;;;;;;;4.90;1.17;;;;;;;12.70;78.55;98700.09;5074447;28;20213;-69
2023/03/14 00:27:39;;;;;;;3.07;0.80;;;;;;;12.73;78.26;98709.53;5074022;28;20663;-69
2023/03/14 00:30:08;;;;;;;3.73;0.70;;;;;;;12.75;77.65;98705.63;5072985;28;20330;-68
2023/03/14 00:32:37;;;;;;;2.37;0.70;;;;;;;12.73;77.62;98710.34;5073558;28;20302;-69
2023/03/14 00:35:05;;;;;;;3.07;0.90;;;;;;;12.73;77.02;98710.34;5073880;28;20285;-70
2023/03/14 00:37:33;;;;;;;1.67;0.70;;;;;;;12.74;77.12;98711.16;5073147;28;20701;-71
2023/03/14 00:40:05;;;;;;;3.37;0.83;;;;;;;12.73;76.80;98696.22;5071095;28;20654;-68
2023/03/14 00:42:33;;;;;;;2.70;0.60;;;;;;;12.72;76.50;98686.59;5072604;28;20199;-69
2023/03/14 00:45:01;;;;;;;1.83;0.67;;;;;;;12.72;76.69;98683.94;5074574;28;20583;-70
2023/03/14 00:47:28;;;;;;;2.60;0.60;;;;;;;12.72;76.74;98686.59;5074765;28;20207;-67
2023/03/14 00:49:57;;;;;;;4.60;0.90;;;;;;;12.66;76.67;98696.25;5074182;28;20203;-69
2023/03/14 00:52:24;;;;;;;3.33;0.90;;;;;;;12.68;76.74;98693.34;5075273;28;20202;-69
2023/03/14 00:54:52;;;;;;;1.43;0.63;;;;;;;12.77;76.08;98686.81;5071755;28;20234;-68
2023/03/14 00:57:21;;;;;;;6.53;0.80;;;;;;;12.72;75.86;98695.41;5073258;28;20305;-70
2023/03/14 00:59:49;;;;;;;5.30;0.90;;;;;;;12.73;75.78;98694.38;5075053;28;20575;-69
2023/03/14 01:02:17;;;;;;;5.37;0.97;;;;;;;12.70;76.26;98691.31;5072556;28;20691;-69
2023/03/14 01:04:45;;;;;;;2.47;0.80;;;;;;;12.68;76.15;98703.97;5071189;28;20225;-69
2023/03/14 01:07:12;;;;;;;3.30;1.10;;;;;;;12.71;76.03;98714.22;5072847;28;20230;-68
2023/03/14 01:09:40;;;;;;;4.43;0.87;;;;;;;12.67;75.98;98703.16;5071454;28;20211;-70
2023/03/14 01:12:08;;;;;;;3.47;0.90;;;;;;;12.65;76.06;98710.56;5073540;28;20202;-69
2023/03/14 01:14:37;;;;;;;3.63;1.20;;;;;;;12.76;75.36;98709.91;5071565;28;20844;-69
2023/03/14 01:17:05;;;;;;;3.20;0.77;;;;;;;12.62;76.24;98704.81;5071610;28;20218;-69
2023/03/14 01:19:33;;;;;;;4.27;0.77;;;;;;;12.62;76.57;98696.84;5072128;28;20897;-70
2023/03/14 01:22:01;;;;;;;4.07;0.93;;;;;;;12.62;76.39;98699.50;5072421;28;20219;-68
2023/03/14 01:24:28;;;;;;;7.60;1.00;;;;;;;12.61;76.24;98698.66;5072381;28;20210;-68
2023/03/14 01:26:56;;;;;;;3.00;0.70;;;;;;;12.52;76.93;98694.56;5072941;28;20203;-69
2023/03/14 01:29:24;;;;;;;4.47;0.90;;;;;;;12.51;76.86;98686.78;5072584;28;20256;-67
2023/03/14 01:31:53;;;;;;;4.80;0.80;;;;;;;12.48;77.52;98684.56;5074083;28;21101;-68
2023/03/14 01:34:21;;;;;;;2.83;0.70;;;;;;;12.44;77.63;98682.31;5072053;28;20269;-69
2023/03/14 01:36:49;;;;;;;3.47;0.97;;;;;;;12.50;77.51;98685.16;5072268;28;20246;-69
2023/03/14 01:39:16;;;;;;;4.33;0.70;;;;;;;12.43;77.75;98685.16;5069373;28;20207;-69
2023/03/14 01:41:44;;;;;;;5.80;0.80;;;;;;;12.50;77.25;98683.31;5070707;28;20244;-69
2023/03/14 01:44:13;;;;;;;4.43;0.90;;;;;;;12.41;77.58;98682.69;5075717;28;20206;-69
2023/03/14 01:46:42;;;;;;;3.47;0.70;;;;;;;12.47;77.06;98669.63;5073246;28;20199;-69
2023/03/14 01:49:17;;;;;;;2.73;0.60;;;;;;;12.43;77.21;98670.03;5072459;28;20213;-69
2023/03/14 01:51:50;;;;;;;3.20;1.17;;;;;;;12.33;78.14;98668.78;5072977;28;20213;-68
2023/03/14 01:54:22;;;;;;;3.20;0.70;;;;;;;12.31;78.50;98665.53;5075183;28;20207;-69
2023/03/14 01:56:56;;;;;;;3.27;0.63;;;;;;;12.37;77.89;98673.50;5074782;28;20245;-68
2023/03/14 01:59:26;;;;;;;6.13;1.10;;;;;;;12.38;77.40;98666.34;5075198;28;20217;-71
2023/03/14 02:01:56;;;;;;;3.63;0.90;;;;;;;12.37;77.25;98662.88;5073192;28;20232;-69
2023/03/14 02:04:31;;;;;;;6.23;1.37;;;;;;;12.34;77.32;98649.97;5073392;28;20211;-69
2023/03/14 02:07:03;;;;;;;6.60;1.00;;;;;;;12.40;77.04;98638.53;5072630;28;20232;-74
2023/03/14 02:09:31;;;;;;;4.30;0.90;;;;;;;12.47;76.47;98646.53;5074503;28;20959;-68
2023/03/14 02:12:00;;;;;;;5.57;0.97;;;;;;;12.50;76.34;98639.97;5075004;28;20267;-69
2023/03/14 02:14:32;;;;;;;3.47;0.73;;;;;;;12.57;75.47;98633.66;5075577;28;20211;-69
2023/03/14 02:17:02;;;;;;;4.20;1.07;;;;;;;12.63;75.12;98626.69;5077004;28;20205;-69
2023/03/14 02:19:48;;;;;;;4.67;0.67;;;;;;;12.69;74.43;98613.38;5074448;28;20211;-70
2023/03/14 02:22:17;;;;;;;2.27;0.80;;;;;;;12.59;75.02;98620.94;5076594;28;20223;-68
2023/03/14 02:24:51;;;;;;;3.97;0.80;;;;;;;12.55;75.62;98613.59;5081408;28;20210;-69
2023/03/14 02:27:21;;;;;;;6.63;1.00;;;;;;;12.55;76.19;98610.94;5075691;28;20210;-69
2023/03/14 02:29:53;;;;;;;2.53;0.70;;;;;;;12.56;76.54;98620.56;5075089;28;20727;-70
2023/03/14 02:32:23;;;;;;;7.67;1.03;;;;;;;12.56;76.80;98610.75;5077672;28;20214;-67
2023/03/14 02:34:55;;;;;;;7.77;1.40;;;;;;;12.60;76.86;98603.16;5072238;28;20209;-68
2023/03/14 02:37:28;;;;;;;6.67;1.10;;;;;;;12.64;76.44;98588.44;5072646;28;20330;-69
2023/03/14 02:39:56;;;;;;;1.73;0.87;;;;;;;12.57;77.23;98592.97;5077881;28;20277;-70
2023/03/14 02:42:28;;;;;;;4.53;0.83;;;;;;;12.53;77.42;98578.44;5074321;28;20241;-69
2023/03/14 02:45:01;;;;;;;4.30;0.80;;;;;;;12.55;76.71;98593.16;5077064;28;20305;-69
2023/03/14 02:47:31;;;;;;;2.83;0.77;;;;;;;12.52;76.79;98593.56;5073656;28;20672;-70
2023/03/14 02:50:05;;;;;;;3.97;0.77;;;;;;;12.48;77.16;98588.88;5075446;28;20949;-69
2023/03/14 02:52:33;;;;;;;2.43;0.70;;;;;;;12.49;77.22;98574.56;5075443;28;20216;-69
2023/03/14 02:55:01;;;;;;;4.00;1.03;;;;;;;12.47;76.94;98576.59;5075417;28;21043;-68
2023/03/14 02:57:30;;;;;;;4.10;0.80;;;;;;;12.52;76.43;98587.41;5074174;28;20210;-68
2023/03/14 02:59:59;;;;;;;4.60;0.63;;;;;;;12.47;76.64;98582.72;5077407;28;20928;-69
2023/03/14 03:02:27;;;;;;;5.63;0.80;;;;;;;12.42;76.87;98572.69;5075017;28;20241;-69
2023/03/14 03:04:55;;;;;;;4.87;0.87;;;;;;;12.38;76.30;98568.84;5074108;28;20222;-70
2023/03/14 03:07:23;;;;;;;4.47;1.00;;;;;;;12.32;76.47;98561.66;5073316;28;20246;-70
2023/03/14 03:09:50;;;;;;;4.90;0.67;;;;;;;12.32;76.35;98556.34;5074333;28;20211;-68
2023/03/14 03:12:18;;;;;;;5.47;1.10;;;;;;;12.37;75.84;98561.06;5074000;28;20212;-69
2023/03/14 03:14:47;;;;;;;4.33;0.77;;;;;;;12.39;74.84;98567.00;5075669;28;20565;-67
2023/03/14 03:17:15;;;;;;;5.87;0.97;;;;;;;12.40;74.07;98553.47;5073590;28;21133;-72
2023/03/14 03:19:43;;;;;;;5.00;1.43;;;;;;;12.41;73.84;98547.16;5073459;28;20297;-68
2023/03/14 03:22:11;;;;;;;4.37;0.97;;;;;;;12.41;74.05;98546.31;5075280;28;20926;-68
2023/03/14 03:24:39;;;;;;;6.80;0.93;;;;;;;12.43;73.43;98534.47;5073686;28;20218;-68
2023/03/14 03:27:06;;;;;;;4.77;1.00;;;;;;;12.38;73.16;98531.63;5074317;28;20625;-69
2023/03/14 03:29:34;;;;;;;3.40;0.80;;;;;;;12.39;72.82;98527.13;5072704;28;20657;-69
2023/03/14 03:32:04;;;;;;;6.73;0.90;;;;;;;12.39;72.43;98514.66;5075116;28;20210;-69
2023/03/14 03:34:31;;;;;;;5.27;0.90;;;;;;;12.37;72.25;98498.09;5074243;28;20240;-68
2023/03/14 03:36:59;;;;;;;6.20;0.90;;;;;;;12.38;71.63;98497.09;5075802;28;20231;-70
2023/03/14 03:39:27;;;;;;;5.20;0.90;;;;;;;12.40;71.31;98505.63;5076068;28;20588;-71
2023/03/14 03:41:55;;;;;;;4.20;1.00;;;;;;;12.48;71.01;98509.13;5073383;28;20312;-69
2023/03/14 03:44:22;;;;;;;9.63;1.50;;;;;;;12.44;70.96;98498.09;5075720;28;20215;-69
2023/03/14 03:46:50;;;;;;;6.93;1.10;;;;;;;12.42;70.74;98492.16;5075331;28;20202;-68
2023/03/14 03:49:19;;;;;;;4.20;0.63;;;;;;;12.38;70.54;98498.91;5074932;28;20207;-70
2023/03/14 03:51:47;;;;;;;5.00;0.67;;;;;;;12.41;70.00;98491.31;5075349;28;20217;-69
2023/03/14 03:54:15;;;;;;;7.03;1.00;;;;;;;12.44;69.83;98501.56;5072447;28;20219;-69
2023/03/14 03:56:42;;;;;;;2.80;0.73;;;;;;;12.41;69.75;98501.97;5073592;28;20206;-69
2023/03/14 03:59:10;;;;;;;4.13;0.87;;;;;;;12.43;69.56;98489.28;5073816;28;20275;-69
2023/03/14 04:01:38;;;;;;;4.30;0.80;;;;;;;12.46;69.33;98495.22;5074970;28;20200;-67
2023/03/14 04:04:06;;;;;;;4.70;0.70;;;;;;;12.39;69.43;98497.91;5073834;28;20245;-68
2023/03/14 04:06:35;;;;;;;3.47;0.70;;;;;;;12.39;69.43;98504.03;5074542;28;20226;-69
2023/03/14 04:09:03;;;;;;;3.50;0.70;;;;;;;12.37;69.39;98500.75;5076255;28;20211;-69
2023/03/14 04:11:32;;;;;;;5.10;0.83;;;;;;;12.35;69.52;98494.81;5073990;28;20672;-68
2023/03/14 04:14:00;;;;;;;5.23;0.60;;;;;;;12.37;69.61;98495.44;5074261;28;20641;-69
2023/03/14 04:16:28;;;;;;;5.27;0.70;;;;;;;12.40;69.59;98494.22;5076237;28;20881;-68
2023/03/14 04:18:56;;;;;;;3.47;0.50;;;;;;;12.35;69.52;98491.34;5075970;28;20701;-69
2023/03/14 04:21:24;;;;;;;3.17;0.70;;;;;;;12.23;70.13;98496.47;5075176;28;20219;-70
2023/03/14 04:23:53;;;;;;;3.83;0.90;;;;;;;12.28;70.18;98490.56;5073758;28;20236;-69
2023/03/14 04:26:21;;;;;;;7.23;0.90;;;;;;;12.31;69.34;98490.94;5073900;28;20214;-68
2023/03/14 04:28:48;;;;;;;3.30;0.63;;;;;;;12.36;69.06;98492.97;5072352;28;20261;-68
2023/03/14 04:31:18;;;;;;;4.30;0.63;;;;;;;12.36;69.09;98493.81;5072124;28;20826;-69
2023/03/14 04:33:46;;;;;;;6.10;0.80;;;;;;;12.30;68.73;98494.66;5073747;28;20231;-69
2023/03/14 04:36:14;;;;;;;2.70;0.60;;;;;;;12.30;69.01;98502.63;5071886;28;20242;-69
2023/03/14 04:38:42;;;;;;;2.50;0.80;;;;;;;12.22;69.42;98492.19;5070521;28;20609;-70
2023/03/14 04:41:11;;;;;;;3.13;0.50;;;;;;;12.21;69.10;98506.50;5072690;28;20950;-69
2023/03/14 04:43:39;;;;;;;6.67;0.80;;;;;;;12.27;69.07;98505.66;5072079;28;20241;-67
2023/03/14 04:46:07;;;;;;;6.23;0.50;;;;;;;12.37;67.85;98497.28;5072768;28;21132;-70
2023/03/14 04:48:35;;;;;;;3.17;0.60;;;;;;;12.40;67.60;98494.22;5071317;28;20670;-70
2023/03/14 04:51:02;;;;;;;5.63;1.03;;;;;;;12.42;67.71;98497.47;5074107;28;20217;-68
2023/03/14 04:53:30;;;;;;;7.17;0.87;;;;;;;12.42;67.22;98479.69;5073406;28;20207;-68
2023/03/14 04:55:59;;;;;;;3.27;0.60;;;;;;;12.40;67.54;98460.47;5073661;28;20210;-68
2023/03/14 04:58:28;;;;;;;1.73;0.73;;;;;;;12.47;67.09;98464.97;5072032;28;20211;-68
2023/03/14 05:00:56;;;;;;;6.17;1.10;;;;;;;12.48;67.17;98453.31;5072559;28;20221;-70
2023/03/14 05:03:24;;;;;;;3.23;0.50;;;;;;;12.46;67.41;98465.97;5070663;28;20222;-69
2023/03/14 05:05:52;;;;;;;6.17;0.63;;;;;;;12.50;66.88;98473.31;5070533;28;20206;-68
2023/03/14 05:08:19;;;;;;;3.47;0.70;;;;;;;12.48;67.15;98466.59;5068589;28;20214;-69
2023/03/14 05:10:53;;;;;;;4.00;0.53;;;;;;;12.48;67.14;98463.94;5071248;28;21217;-68
2023/03/14 05:13:20;;;;;;;4.60;0.70;;;;;;;12.50;66.95;98478.63;5070642;28;20222;-70
2023/03/14 05:15:50;;;;;;;4.57;0.80;;;;;;;12.57;66.61;98452.88;5074065;28;20248;-69
2023/03/14 05:18:18;;;;;;;3.57;0.67;;;;;;;12.49;66.99;98458.38;5071654;28;20214;-69
2023/03/14 05:20:46;;;;;;;3.63;0.60;;;;;;;12.44;66.65;98468.84;5072840;28;20228;-68
2023/03/14 05:23:14;;;;;;;3.83;0.80;;;;;;;12.39;66.39;98461.50;5068766;28;20320;-70
2023/03/14 05:25:44;;;;;;;3.70;0.80;;;;;;;12.39;66.56;98456.19;5070639;28;20299;-68
2023/03/14 05:28:11;;;;;;;3.20;0.40;;;;;;;12.37;67.04;98442.28;5069100;28;20568;-69
2023/03/14 05:30:39;;;;;;;1.00;0.40;;;;;;;12.43;67.33;98451.25;5072878;28;20221;-69
2023/03/14 05:33:08;;;;;;;2.30;0.60;;;;;;;12.40;67.05;98452.47;5072157;28;20209;-69
2023/03/14 05:35:36;;;;;;;3.80;0.73;;;;;;;12.41;67.18;98459.44;5073144;28;20210;-69
2023/03/14 05:38:04;;;;;;;4.73;0.70;;;;;;;12.46;66.84;98456.16;5073768;28;20291;-67
2023/03/14 05:40:31;;;;;;;3.53;0.50;;;;;;;12.34;67.00;98445.34;5071480;28;20207;-69
2023/03/14 05:42:59;;;;;;;3.27;0.70;;;;;;;12.40;67.25;98451.69;5074031;28;20243;-70
2023/03/14 05:45:27;;;;;;;2.53;0.67;;;;;;;12.46;67.57;98450.84;5072083;28;20214;-68
2023/03/14 05:47:55;;;;;;;5.07;1.20;;;;;;;12.52;67.00;98465.13;5075182;28;21001;-70
2023/03/14 05:50:24;;;;;;;5.63;0.63;;;;;;;12.50;67.30;98461.88;5075942;28;20213;-69
2023/03/14 05:52:52;;;;;;;3.00;0.50;;;;;;;12.63;66.71;98451.22;5078536;28;20210;-69
2023/03/14 05:55:19;;;;;;;1.73;0.50;;;;;;;12.57;66.84;98444.06;5078611;28;20206;-69
2023/03/14 05:57:47;;;;;;;4.27;0.90;;;;;;;12.53;66.88;98445.50;5078487;28;20218;-69
2023/03/14 06:00:16;;;;;;;2.80;0.50;;;;;;;12.53;66.77;98442.84;5077225;28;20230;-70
2023/03/14 06:02:43;;;;;;;4.83;0.83;;;;;;;12.55;66.46;98446.13;5077986;28;20302;-70
2023/03/14 06:05:12;;;;;;;6.90;0.93;;;;;;;12.59;66.05;98442.81;5077942;28;20236;-69
2023/03/14 06:07:41;;;;;;;2.80;0.50;;;;;;;12.59;66.35;98444.66;5079782;28;20638;-69
2023/03/14 06:10:10;;;;;;;2.50;0.63;;;;;;;12.53;66.72;98450.81;5073778;28;20330;-69
2023/03/14 06:12:37;;;;;;;1.33;0.40;;;;;;;12.60;66.55;98449.78;5076283;28;20215;-69
2023/03/14 06:15:07;;;;;;;1.87;0.40;;;;;;;12.60;66.58;98457.75;5077535;28;20771;-70
2023/03/14 06:17:35;;;;;;;1.73;0.80;;;;;;;12.61;66.87;98451.41;5078659;28;20215;-70
2023/03/14 06:20:03;;;;;;;3.33;0.40;;;;;;;12.68;67.06;98470.00;5078570;28;20257;-69
2023/03/14 06:22:31;;;;;;;3.33;0.67;;;;;;;12.71;67.34;98469.59;5075822;28;20214;-67
2023/03/14 06:25:00;;;;;;;2.57;0.50;;;;;;;12.73;67.04;98470.19;5077576;28;20230;-69
2023/03/14 06:27:28;;;;;;;5.60;0.90;;;;;;;12.80;66.92;98463.00;5075953;28;20211;-68
2023/03/14 06:29:55;;;;;;;4.47;1.00;;;;;;;12.77;66.98;98468.72;5073082;28;20214;-70
2023/03/14 06:32:24;;;;;;;3.03;0.40;;;;;;;12.73;66.72;98473.69;5075511;28;20207;-69
2023/03/14 06:34:52;;;;;;;3.03;0.60;;;;;;;12.72;66.75;98468.56;5075480;28;20199;-67
2023/03/14 06:37:20;;;;;;;2.50;0.30;;;;;;;12.67;67.43;98473.66;5074849;28;20243;-69
2023/03/14 06:39:48;;;;;;;2.77;0.77;;;;;;;12.68;66.95;98454.84;5075159;28;20917;-69
2023/03/14 06:42:17;;;;;;;3.10;0.40;;;;;;;12.64;66.53;98451.00;5075838;28;20243;-68
2023/03/14 06:44:45;;;;;;;3.00;0.40;;;;;;;12.71;65.82;98449.13;5074846;28;20239;-69
2023/03/14 06:47:12;;;;;;;5.80;1.33;;;;;;;12.75;65.06;98449.53;5075809;28;20329;-70
2023/03/14 06:49:40;;;;;;;3.93;0.70;;;;;;;12.68;65.42;98449.53;5071183;28;20218;-70
2023/03/14 06:52:08;;;;;;;2.43;0.50;;;;;;;12.69;65.43;98455.69;5073079;28;20219;-69
2023/03/14 06:54:35;;;;;;;3.57;0.50;;;;;;;12.71;65.61;98448.31;5074107;28;20602;-70
2023/03/14 06:57:03;;;;;;;3.03;0.50;;;;;;;12.79;65.24;98442.75;5073211;28;20226;-69
2023/03/14 06:59:32;;;;;;;4.37;0.60;;;;;;;12.76;65.37;98438.66;5075380;28;20210;-68
2023/03/14 07:02:00;;;;;;;3.93;0.90;;;;;;;12.74;65.83;98448.72;5075367;28;20219;-70
2023/03/14 07:04:27;;;;;;;4.57;0.80;;;;;;;12.73;66.09;98447.09;5073738;28;20227;-69
2023/03/14 07:06:55;;;;;;;2.20;0.40;;;;;;;12.80;66.36;98442.53;5072725;28;20743;-68
2023/03/14 07:09:23;;;;;;;3.50;0.60;;;;;;;12.84;66.27;98426.97;5073103;28;20212;-69
2023/03/14 07:11:51;;;;;;;1.30;0.30;;;;;;;12.87;66.20;98439.03;5073311;28;20214;-68
2023/03/14 07:14:18;;;;;;;1.40;0.50;;;;;;;12.99;66.12;98440.81;5075383;28;20305;-69
2023/03/14 07:16:49;;;;;;;3.23;0.70;;;;;;;12.92;66.65;98453.34;5071851;28;20211;-69
2023/03/14 07:19:17;;;;;;;2.80;0.50;;;;;;;12.81;67.28;98448.69;5074821;28;20207;-75
2023/03/14 07:21:44;;;;;;;1.70;0.57;;;;;;;12.89;67.25;98455.59;5072649;28;20218;-73
2023/03/14 07:24:12;;;;;;;3.47;0.80;;;;;;;12.95;67.36;98460.06;5077273;28;20679;-75
2023/03/14 07:26:40;;;;;;;4.13;0.50;;;;;;;13.02;66.93;98461.66;5076052;28;20202;-74
2023/03/14 07:29:08;;;;;;;3.73;0.80;;;;;;;13.04;66.95;98464.94;5079123;28;20214;-73
2023/03/14 07:31:36;;;;;;;3.03;0.60;;;;;;;13.16;66.82;98463.28;5078200;28;20240;-70
2023/03/14 07:34:05;;;;;;;2.80;1.00;;;;;;;13.33;66.34;98462.78;5076641;28;20382;-70
2023/03/14 07:36:33;;;;;;;2.67;0.50;;;;;;;13.50;65.60;98466.53;5073986;28;20325;-72
2023/03/14 07:39:00;;;;;;;7.20;1.17;;;;;;;13.68;63.84;98471.94;5076383;28;20800;-71
2023/03/14 07:41:28;;;;;;;2.27;0.60;;;;;;;13.69;63.50;98465.59;5069581;28;20309;-72
2023/03/14 07:43:56;;;;;;;3.67;0.43;;;;;;;13.77;63.95;98465.31;5073604;28;20206;-71
2023/03/14 07:46:24;;;;;;;2.10;0.30;;;;;;;13.76;64.43;98468.19;5068350;28;20206;-70
2023/03/14 07:48:51;;;;;;;2.00;0.30;;;;;;;13.90;63.94;98473.19;5075094;28;20210;-71
2023/03/14 07:51:20;;;;;;;3.63;0.40;;;;;;;13.85;63.34;98462.38;5076643;28;20204;-73
2023/03/14 07:53:48;;;;;;;2.07;0.20;;;;;;;13.97;63.51;98465.16;5074607;28;20220;-72
2023/03/14 07:56:16;;;;;;;1.53;0.30;;;;;;;14.01;62.77;98466.34;5071885;28;20274;-73
2023/03/14 07:58:43;;;;;;;0.73;0.20;;;;;;;13.91;62.14;98460.69;5073955;28;20676;-70
2023/03/14 08:01:11;;;;;;;4.27;0.70;;;;;;;13.97;61.79;98461.69;5065037;28;20213;-71
2023/03/14 08:03:39;;;;;;;2.57;0.27;;;;;;;14.05;61.97;98456.91;5072913;28;20271;-71
2023/03/14 08:06:07;;;;;;;0.97;0.20;;;;;;;14.04;62.08;98470.44;5071872;28;20317;-70
2023/03/14 08:08:36;;;;;;;3.73;0.50;;;;;;;14.14;62.15;98466.25;5073341;28;20222;-71
2023/03/14 08:11:08;;;;;;;1.83;0.40;;;;;;;14.26;61.85;98461.00;5072832;28;20931;-71
2023/03/14 08:13:37;;;;;;;2.00;0.20;;;;;;;14.40;61.76;98467.88;5071913;28;20201;-72
2023/03/14 08:16:05;;;;;;;1.77;0.30;;;;;;;14.53;61.61;98464.22;5072722;28;20232;-71
2023/03/14 08:18:33;;;;;;;3.17;0.60;;;;;;;14.77;60.38;98470.53;5072946;28;20209;-73
2023/03/14 08:21:01;;;;;;;1.27;0.40;;;;;;;14.98;59.37;98470.06;5069660;28;20245;-72
2023/03/14 08:23:29;;;;;;;2.90;0.37;;;;;;;15.29;59.20;98477.88;5073719;28;20215;-72
2023/03/14 08:25:58;;;;;;;2.37;0.40;;;;;;;15.71;57.75;98478.72;5076698;28;20226;-72
2023/03/14 08:28:30;;;;;;;1.13;0.27;;;;;;;16.67;55.00;98477.50;5069829;28;20215;-71
2023/03/14 08:30:58;;;;;;;1.20;0.40;;;;;;;16.83;54.04;98482.13;5071420;28;20219;-72
2023/03/14 08:33:26;;;;;;;1.13;0.40;;;;;;;17.03;52.99;98492.44;5069623;28;20211;-72
2023/03/14 08:35:54;;;;;;;1.00;0.30;;;;;;;16.76;53.83;98486.78;5073188;28;20294;-70
2023/03/14 08:38:22;;;;;;;2.30;0.40;;;;;;;16.92;53.49;98482.56;5074616;28;20210;-72
2023/03/14 08:40:58;;;;;;;1.03;0.30;;;;;;;16.91;53.47;98481.75;5072926;28;20211;-71
2023/03/14 08:43:26;;;;;;;2.00;0.40;;;;;;;16.87;53.87;98493.19;5073760;28;20843;-73
2023/03/14 08:45:54;;;;;;;1.93;0.53;;;;;;;16.67;54.47;98496.22;5073655;28;20226;-72
2023/03/14 08:48:22;;;;;;;1.37;0.63;;;;;;;16.40;55.11;98489.72;5072776;28;20222;-73
2023/03/14 08:50:50;;;;;;;1.10;0.47;;;;;;;16.18;55.52;98500.97;5074122;28;20222;-71
2023/03/14 08:53:18;;;;;;;1.40;0.30;;;;;;;15.78;56.68;98497.31;5072174;28;20218;-71
2023/03/14 08:55:45;;;;;;;2.53;0.33;;;;;;;15.90;57.25;98484.00;5070243;28;20688;-71
2023/03/14 08:58:15;;;;;;;2.27;0.40;;;;;;;16.71;55.63;98499.25;5068621;28;20207;-72
2023/03/14 09:00:42;;;;;;;2.67;0.37;;;;;;;17.32;54.28;98497.81;5068949;28;20231;-70
2023/03/14 09:03:10;;;;;;;1.37;0.57;;;;;;;17.67;53.58;98482.41;5070417;28;20203;-70
2023/03/14 09:05:38;;;;;;;0.93;0.40;;;;;;;20.37;47.28;98477.41;5072878;28;20229;-73
2023/03/14 09:08:06;;;;;;;1.13;0.30;;;;;;;22.64;41.43;98473.56;5070276;28;20988;-73
2023/03/14 09:10:34;;;;;;;1.50;0.37;;;;;;;22.83;40.60;98474.59;5072254;28;20677;-73
2023/03/14 09:13:02;;;;;;;1.40;0.47;;;;;;;22.42;41.62;98484.69;5070294;28;20210;-72
2023/03/14 09:15:31;;;;;;;1.80;0.50;;;;;;;23.29;39.73;98466.31;5073039;28;20580;-71
2023/03/14 09:17:58;;;;;;;1.37;0.30;;;;;;;23.02;39.47;98479.41;5069532;28;20235;-72
2023/03/14 09:20:27;;;;;;;0.95;0.30;;;;;;;22.48;40.04;98472.78;5068585;28;20269;-72
2023/03/14 09:22:54;;;;;;;0.60;0.20;;;;;;;21.14;42.75;98484.78;5069930;28;20238;-72
2023/03/14 09:25:22;;;;;;;0.25;0.20;;;;;;;19.81;45.68;98471.56;5072142;28;20243;-71
2023/03/14 09:27:50;;;;;;;0.53;0.20;;;;;;;18.85;48.44;98483.94;5068490;28;20214;-71
2023/03/14 09:30:18;;;;;;;1.87;0.40;;;;;;;17.98;51.06;98468.44;5075451;28;20210;-73
2023/03/14 09:32:47;;;;;;;1.23;0.50;;;;;;;17.37;53.08;98477.28;5071761;28;20332;-70
2023/03/14 09:35:15;;;;;;;0.47;0.20;;;;;;;17.25;53.08;98466.63;5073178;28;20211;-71
2023/03/14 09:37:43;;;;;;;0.23;0.10;;;;;;;17.17;54.17;98480.38;5073466;28;20243;-70
2023/03/14 09:40:14;;;;;;;0.87;0.30;;;;;;;17.00;54.21;98476.03;5070051;28;20206;-72
2023/03/14 09:42:42;;;;;;;0.73;0.10;;;;;;;16.51;55.71;98478.19;5068995;28;20289;-72
2023/03/14 09:45:17;;;;;;;0.50;0.20;;;;;;;16.20;57.13;98484.69;5071081;28;20214;-71
2023/03/14 09:47:48;;;;;;;1.43;0.30;;;;;;;15.89;57.75;98485.03;5071425;28;20216;-74
2023/03/14 09:50:27;;;;;;;0.30;0.20;;;;;;;15.63;59.20;98492.41;5073602;28;20203;-73
2023/03/14 09:53:00;;;;;;;0.80;0.30;;;;;;;15.54;60.17;98492.97;5071649;28;20204;-72
2023/03/14 09:55:29;;;;;;;1.00;0.20;;;;;;;15.56;61.01;98488.22;5072578;28;20663;-73
2023/03/14 09:58:00;;;;;;;1.80;0.63;;;;;;;15.53;61.66;98486.78;5073719;28;20289;-74
2023/03/14 10:00:30;;;;;;;0.73;0.40;;;;;;;15.88;61.07;98488.75;5070948;28;20207;-73
2023/03/14 10:03:19;;;;;;;0.93;0.27;;;;;;;16.14;59.96;98486.44;5073407;28;20214;-72
2023/03/14 10:05:46;;;;;;;1.93;0.40;;;;;;;16.16;59.89;98486.22;5072321;28;20224;-72
2023/03/14 10:08:15;;;;;;;1.13;0.33;;;;;;;15.98;60.19;98481.78;5071739;28;20227;-72
2023/03/14 10:10:43;;;;;;;1.00;0.27;;;;;;;15.54;61.14;98479.63;5073789;28;20703;-72
2023/03/14 10:13:16;;;;;;;1.13;0.37;;;;;;;15.30;62.44;98487.50;5074662;28;20309;-71
2023/03/14 10:15:49;;;;;;;0.20;0.10;;;;;;;15.14;63.52;98482.78;5071142;28;20644;-72
2023/03/14 10:18:18;;;;;;;3.97;0.50;;;;;;;15.11;63.88;98485.91;5072741;28;20205;-72
2023/03/14 10:20:48;;;;;;;2.47;0.33;;;;;;;14.87;65.07;98481.47;5071671;28;20199;-71
2023/03/14 10:23:28;;;;;;;0.40;0.30;;;;;;;14.71;65.80;98490.09;5071189;28;20217;-72
2023/03/14 10:26:04;;;;;;;1.10;0.23;;;;;;;14.45;67.25;98493.84;5069330;28;20710;-71
2023/03/14 10:28:34;;;;;;;2.30;0.30;;;;;;;14.30;68.39;98496.84;5069993;28;20216;-70
2023/03/14 10:31:02;;;;;;;2.30;0.20;;;;;;;14.32;68.77;98492.13;5070082;28;20213;-70
2023/03/14 10:33:33;;;;;;;3.23;0.40;;;;;;;14.38;69.00;98496.56;5077068;28;20210;-69
2023/03/14 10:36:03;;;;;;;0.57;0.20;;;;;;;14.29;68.37;98485.38;5075745;28;20230;-69
2023/03/14 10:38:33;;;;;;;3.97;0.50;;;;;;;14.17;69.33;98480.97;5074811;28;20258;-69
2023/03/14 10:41:01;;;;;;;1.90;0.67;;;;;;;14.07;69.62;98484.13;5072517;28;20213;-70
2023/03/14 10:43:34;;;;;;;2.00;0.40;;;;;;;14.00;70.60;98490.53;5076827;28;20292;-71
2023/03/14 10:46:09;;;;;;;1.03;0.33;;;;;;;13.94;71.19;98492.25;5076126;28;20229;-71
2023/03/14 10:48:41;;;;;;;1.17;0.40;;;;;;;13.75;72.71;98510.00;5071628;28;21104;-70
2023/03/14 10:51:11;;;;;;;1.00;0.60;;;;;;;13.68;73.86;98503.09;5073709;28;20210;-71
2023/03/14 10:53:44;;;;;;;4.00;0.33;;;;;;;13.69;74.80;98502.88;5071386;28;20213;-69
2023/03/14 10:56:16;;;;;;;2.73;0.77;;;;;;;13.54;76.21;98502.38;5071556;28;20828;-69
2023/03/14 10:58:46;;;;;;;0.83;0.30;;;;;;;13.54;76.77;98507.69;5073207;28;20241;-69
2023/03/14 11:01:32;;;;;;;0.97;0.40;;;;;;;13.68;76.43;98508.41;5073669;28;20208;-70
2023/03/14 11:04:10;;;;;;;2.17;0.40;;;;;;;13.78;75.15;98509.56;5072106;28;20210;-69
2023/03/14 11:06:45;;;;;;;1.17;0.30;;;;;;;13.78;75.01;98514.09;5075393;28;20230;-68
2023/03/14 11:09:21;;;;;;;1.23;0.40;;;;;;;13.79;74.84;98527.19;5075814;28;20217;-69
2023/03/14 11:11:49;;;;;;;0.70;0.43;;;;;;;13.79;74.19;98523.72;5076882;28;20213;-69
2023/03/14 11:14:29;;;;;;;1.03;0.40;;;;;;;13.82;74.51;98529.41;5074731;28;20214;-72
2023/03/14 11:17:03;;;;;;;0.97;0.30;;;;;;;13.86;73.69;98532.47;5075324;28;20778;-71
2023/03/14 11:19:46;;;;;;;0.53;0.17;;;;;;;13.83;73.67;98541.69;5074768;28;20261;-73
2023/03/14 11:22:22;;;;;;;0.40;0.20;;;;;;;13.86;72.49;98530.63;5074519;28;20215;-70
2023/03/14 11:25:07;;;;;;;0.83;0.20;;;;;;;13.88;72.08;98546.41;5074405;28;20212;-72
2023/03/14 11:27:43;;;;;;;0.50;0.20;;;;;;;13.90;71.62;98545.13;5073307;28;20248;-70
2023/03/14 11:30:21;;;;;;;0.30;0.30;;;;;;;13.97;70.58;98557.59;5075763;28;20209;-73
2023/03/14 11:32:58;;;;;;;0.37;0.27;;;;;;;14.01;70.41;98556.13;5075281;28;20222;-72
2023/03/14 11:35:33;;;;;;;0.63;0.40;;;;;;;14.07;70.38;98571.28;5080452;28;20204;-73
2023/03/14 11:38:12;;;;;;;1.50;0.60;;;;;;;14.10;70.09;98570.81;5083361;28;21005;-70
2023/03/14 11:40:41;;;;;;;1.00;0.40;;;;;;;14.03;70.30;98575.38;5074705;28;20263;-71
2023/03/14 11:43:16;;;;;;;3.80;0.70;;;;;;;14.15;68.67;98589.66;5073609;28;20692;-70